sensor_id;sensor_type;location;lat;lon;timestamp;temperature;humidity
14771;DHT22;7477;45.222;5.688;2023-11-19T00:02:10;7.50;99.90
14771;DHT22;7477;45.222;5.688;2023-11-19T00:05:29;7.70;99.90
14771;DHT22;7477;45.222;5.688;2023-11-19T00:08:48;7.50;99.90
14771;DHT22;7477;45.222;5.688;2023-11-19T00:12:09;7.60;99.90
14771;DHT22;7477;45.222;5.688;2023-11-19T00:15:28;7.40;99.90
14771;DHT22;7477;45.222;5.688;2023-11-19T00:18:47;7.30;99.90
14771;DHT22;7477;45.222;5.688;2023-11-19T00:22:06;7.30;99.90
14771;DHT22;7477;45.222;5.688;2023-11-19T00:25:25;7.20;99.90
14771;DHT22;7477;45.222;5.688;2023-11-19T00:28:44;7.10;99.90
14771;DHT22;7477;45.222;5.688;2023-11-19T00:32:04;7.10;99.90
14771;DHT22;7477;45.222;5.688;2023-11-19T00:35:24;7.10;99.90
14771;DHT22;7477;45.222;5.688;2023-11-19T00:38:43;7.00;99.90
14771;DHT22;7477;45.222;5.688;2023-11-19T00:42:03;7.10;99.90
14771;DHT22;7477;45.222;5.688;2023-11-19T00:45:22;7.00;99.90
14771;DHT22;7477;45.222;5.688;2023-11-19T00:48:42;7.00;99.90
14771;DHT22;7477;45.222;5.688;2023-11-19T00:52:01;7.00;99.90
14771;DHT22;7477;45.222;5.688;2023-11-19T00:55:21;6.90;99.90
14771;DHT22;7477;45.222;5.688;2023-11-19T00:58:40;6.90;99.90
14771;DHT22;7477;45.222;5.688;2023-11-19T01:01:59;7.00;99.90
14771;DHT22;7477;45.222;5.688;2023-11-19T01:05:22;6.90;99.90
14771;DHT22;7477;45.222;5.688;2023-11-19T01:08:42;6.90;99.90
14771;DHT22;7477;45.222;5.688;2023-11-19T01:12:03;7.10;99.90
14771;DHT22;7477;45.222;5.688;2023-11-19T01:15:23;7.30;99.90
14771;DHT22;7477;45.222;5.688;2023-11-19T01:18:43;6.90;99.90
14771;DHT22;7477;45.222;5.688;2023-11-19T01:22:02;6.90;99.90
14771;DHT22;7477;45.222;5.688;2023-11-19T01:25:21;6.90;99.90
14771;DHT22;7477;45.222;5.688;2023-11-19T01:28:41;6.80;99.90
14771;DHT22;7477;45.222;5.688;2023-11-19T01:32:04;6.80;99.90
14771;DHT22;7477;45.222;5.688;2023-11-19T01:35:23;6.70;99.90
14771;DHT22;7477;45.222;5.688;2023-11-19T01:38:42;6.70;99.90
14771;DHT22;7477;45.222;5.688;2023-11-19T01:42:02;6.70;99.90
14771;DHT22;7477;45.222;5.688;2023-11-19T01:45:26;6.70;99.90
14771;DHT22;7477;45.222;5.688;2023-11-19T01:48:47;6.70;99.90
14771;DHT22;7477;45.222;5.688;2023-11-19T01:52:06;6.70;99.90
14771;DHT22;7477;45.222;5.688;2023-11-19T01:55:27;6.70;99.90
14771;DHT22;7477;45.222;5.688;2023-11-19T01:58:50;6.80;99.90
14771;DHT22;7477;45.222;5.688;2023-11-19T02:02:09;6.80;99.90
14771;DHT22;7477;45.222;5.688;2023-11-19T02:05:29;6.70;99.90
14771;DHT22;7477;45.222;5.688;2023-11-19T02:08:51;6.70;99.90
14771;DHT22;7477;45.222;5.688;2023-11-19T02:12:10;6.70;99.90
14771;DHT22;7477;45.222;5.688;2023-11-19T02:15:33;6.80;99.90
14771;DHT22;7477;45.222;5.688;2023-11-19T02:18:52;6.70;99.90
14771;DHT22;7477;45.222;5.688;2023-11-19T02:22:11;6.60;99.90
14771;DHT22;7477;45.222;5.688;2023-11-19T02:25:32;6.50;99.90
14771;DHT22;7477;45.222;5.688;2023-11-19T02:28:52;6.60;99.90
14771;DHT22;7477;45.222;5.688;2023-11-19T02:32:11;6.50;99.90
14771;DHT22;7477;45.222;5.688;2023-11-19T02:35:32;6.50;99.90
14771;DHT22;7477;45.222;5.688;2023-11-19T02:38:53;6.40;99.90
14771;DHT22;7477;45.222;5.688;2023-11-19T02:42:12;6.50;99.90
14771;DHT22;7477;45.222;5.688;2023-11-19T02:45:32;6.40;99.90
14771;DHT22;7477;45.222;5.688;2023-11-19T02:48:51;6.30;99.90
14771;DHT22;7477;45.222;5.688;2023-11-19T02:52:11;6.40;99.90
14771;DHT22;7477;45.222;5.688;2023-11-19T02:55:30;6.50;99.90
14771;DHT22;7477;45.222;5.688;2023-11-19T02:58:55;6.60;99.90
14771;DHT22;7477;45.222;5.688;2023-11-19T03:02:14;6.70;99.90
14771;DHT22;7477;45.222;5.688;2023-11-19T03:05:35;6.70;99.90
14771;DHT22;7477;45.222;5.688;2023-11-19T03:08:54;6.70;99.90
14771;DHT22;7477;45.222;5.688;2023-11-19T03:12:14;6.80;99.90
14771;DHT22;7477;45.222;5.688;2023-11-19T03:15:34;6.80;99.90
14771;DHT22;7477;45.222;5.688;2023-11-19T03:18:53;6.70;99.90
14771;DHT22;7477;45.222;5.688;2023-11-19T03:22:13;6.60;99.90
14771;DHT22;7477;45.222;5.688;2023-11-19T03:25:32;6.70;99.90
14771;DHT22;7477;45.222;5.688;2023-11-19T03:28:56;6.60;99.90
14771;DHT22;7477;45.222;5.688;2023-11-19T03:32:16;6.60;99.90
14771;DHT22;7477;45.222;5.688;2023-11-19T03:35:35;6.60;99.90
14771;DHT22;7477;45.222;5.688;2023-11-19T03:38:54;6.50;99.90
14771;DHT22;7477;45.222;5.688;2023-11-19T03:42:13;6.50;99.90
14771;DHT22;7477;45.222;5.688;2023-11-19T03:45:32;6.40;99.90
14771;DHT22;7477;45.222;5.688;2023-11-19T03:48:51;6.50;99.90
14771;DHT22;7477;45.222;5.688;2023-11-19T03:52:10;6.40;99.90
14771;DHT22;7477;45.222;5.688;2023-11-19T03:55:29;6.50;99.90
14771;DHT22;7477;45.222;5.688;2023-11-19T03:58:48;6.30;99.90
14771;DHT22;7477;45.222;5.688;2023-11-19T04:02:08;6.30;99.90
14771;DHT22;7477;45.222;5.688;2023-11-19T04:05:27;6.30;99.90
14771;DHT22;7477;45.222;5.688;2023-11-19T04:08:46;6.30;99.90
14771;DHT22;7477;45.222;5.688;2023-11-19T04:12:05;6.30;99.90
14771;DHT22;7477;45.222;5.688;2023-11-19T04:15:25;6.30;99.90
14771;DHT22;7477;45.222;5.688;2023-11-19T04:18:44;6.20;99.90
14771;DHT22;7477;45.222;5.688;2023-11-19T04:22:03;6.20;99.90
14771;DHT22;7477;45.222;5.688;2023-11-19T04:25:23;6.20;99.90
14771;DHT22;7477;45.222;5.688;2023-11-19T04:28:45;6.40;99.90
14771;DHT22;7477;45.222;5.688;2023-11-19T04:32:04;6.50;99.90
14771;DHT22;7477;45.222;5.688;2023-11-19T04:35:24;7.10;99.90
14771;DHT22;7477;45.222;5.688;2023-11-19T04:38:45;7.00;99.90
14771;DHT22;7477;45.222;5.688;2023-11-19T04:42:05;6.80;99.90
14771;DHT22;7477;45.222;5.688;2023-11-19T04:45:25;6.90;99.90
14771;DHT22;7477;45.222;5.688;2023-11-19T04:48:44;6.70;99.90
14771;DHT22;7477;45.222;5.688;2023-11-19T04:52:04;6.60;99.90
14771;DHT22;7477;45.222;5.688;2023-11-19T04:55:23;6.60;99.90
14771;DHT22;7477;45.222;5.688;2023-11-19T04:58:43;6.50;99.90
14771;DHT22;7477;45.222;5.688;2023-11-19T05:02:03;6.50;99.90
14771;DHT22;7477;45.222;5.688;2023-11-19T05:05:22;6.50;99.90
14771;DHT22;7477;45.222;5.688;2023-11-19T05:08:41;6.50;99.90
14771;DHT22;7477;45.222;5.688;2023-11-19T05:12:01;6.60;99.90
14771;DHT22;7477;45.222;5.688;2023-11-19T05:15:21;6.60;99.90
14771;DHT22;7477;45.222;5.688;2023-11-19T05:18:40;6.60;99.90
14771;DHT22;7477;45.222;5.688;2023-11-19T05:21:59;6.70;99.90
14771;DHT22;7477;45.222;5.688;2023-11-19T05:25:19;6.70;99.90
14771;DHT22;7477;45.222;5.688;2023-11-19T05:28:39;6.60;99.90
14771;DHT22;7477;45.222;5.688;2023-11-19T05:31:59;6.60;99.90
14771;DHT22;7477;45.222;5.688;2023-11-19T05:35:18;6.60;99.90
14771;DHT22;7477;45.222;5.688;2023-11-19T05:38:38;6.60;99.90
14771;DHT22;7477;45.222;5.688;2023-11-19T05:41:57;6.40;99.90
14771;DHT22;7477;45.222;5.688;2023-11-19T05:45:17;6.50;99.90
14771;DHT22;7477;45.222;5.688;2023-11-19T05:48:36;6.40;99.90
14771;DHT22;7477;45.222;5.688;2023-11-19T05:51:55;6.30;99.90
14771;DHT22;7477;45.222;5.688;2023-11-19T05:55:15;6.20;99.90
14771;DHT22;7477;45.222;5.688;2023-11-19T05:58:35;6.20;99.90
14771;DHT22;7477;45.222;5.688;2023-11-19T06:01:55;6.20;99.90
14771;DHT22;7477;45.222;5.688;2023-11-19T06:05:14;6.20;99.90
14771;DHT22;7477;45.222;5.688;2023-11-19T06:08:33;6.10;99.90
14771;DHT22;7477;45.222;5.688;2023-11-19T06:11:52;6.00;99.90
14771;DHT22;7477;45.222;5.688;2023-11-19T06:15:11;6.00;99.90
14771;DHT22;7477;45.222;5.688;2023-11-19T06:18:30;6.10;99.90
14771;DHT22;7477;45.222;5.688;2023-11-19T06:21:51;6.10;99.90
14771;DHT22;7477;45.222;5.688;2023-11-19T06:25:10;6.00;99.90
14771;DHT22;7477;45.222;5.688;2023-11-19T06:28:31;6.10;99.90
14771;DHT22;7477;45.222;5.688;2023-11-19T06:31:50;6.20;99.90
14771;DHT22;7477;45.222;5.688;2023-11-19T06:35:10;6.20;99.90
14771;DHT22;7477;45.222;5.688;2023-11-19T06:38:29;6.20;99.90
14771;DHT22;7477;45.222;5.688;2023-11-19T06:41:48;6.10;99.90
14771;DHT22;7477;45.222;5.688;2023-11-19T06:45:08;6.00;99.90
14771;DHT22;7477;45.222;5.688;2023-11-19T06:48:28;6.10;99.90
14771;DHT22;7477;45.222;5.688;2023-11-19T06:51:47;6.10;99.90
14771;DHT22;7477;45.222;5.688;2023-11-19T06:55:06;6.10;99.90
14771;DHT22;7477;45.222;5.688;2023-11-19T06:58:26;6.10;99.90
14771;DHT22;7477;45.222;5.688;2023-11-19T07:01:45;6.10;99.90
14771;DHT22;7477;45.222;5.688;2023-11-19T07:05:05;6.10;99.90
14771;DHT22;7477;45.222;5.688;2023-11-19T07:08:24;6.10;99.90
14771;DHT22;7477;45.222;5.688;2023-11-19T07:11:43;6.10;99.90
14771;DHT22;7477;45.222;5.688;2023-11-19T07:15:04;6.10;99.90
14771;DHT22;7477;45.222;5.688;2023-11-19T07:18:25;6.10;99.90
14771;DHT22;7477;45.222;5.688;2023-11-19T07:21:44;6.10;99.90
14771;DHT22;7477;45.222;5.688;2023-11-19T07:25:04;6.10;99.90
14771;DHT22;7477;45.222;5.688;2023-11-19T07:28:24;6.10;99.90
14771;DHT22;7477;45.222;5.688;2023-11-19T07:31:44;6.10;99.90
14771;DHT22;7477;45.222;5.688;2023-11-19T07:35:04;6.10;99.90
14771;DHT22;7477;45.222;5.688;2023-11-19T07:38:24;6.20;99.90
14771;DHT22;7477;45.222;5.688;2023-11-19T07:41:43;6.20;99.90
14771;DHT22;7477;45.222;5.688;2023-11-19T07:45:03;6.10;99.90
14771;DHT22;7477;45.222;5.688;2023-11-19T07:48:22;6.20;99.90
14771;DHT22;7477;45.222;5.688;2023-11-19T07:51:42;6.30;99.90
14771;DHT22;7477;45.222;5.688;2023-11-19T07:55:01;6.30;99.90
14771;DHT22;7477;45.222;5.688;2023-11-19T07:58:22;6.30;99.90
14771;DHT22;7477;45.222;5.688;2023-11-19T08:01:41;6.30;99.90
14771;DHT22;7477;45.222;5.688;2023-11-19T08:05:00;6.40;99.90
14771;DHT22;7477;45.222;5.688;2023-11-19T08:08:19;6.40;99.90
14771;DHT22;7477;45.222;5.688;2023-11-19T08:11:43;6.40;99.90
14771;DHT22;7477;45.222;5.688;2023-11-19T08:15:03;6.40;99.90
14771;DHT22;7477;45.222;5.688;2023-11-19T08:18:24;6.50;99.90
14771;DHT22;7477;45.222;5.688;2023-11-19T08:21:43;6.40;99.90
14771;DHT22;7477;45.222;5.688;2023-11-19T08:25:06;6.50;99.90
14771;DHT22;7477;45.222;5.688;2023-11-19T08:28:25;6.60;99.90
14771;DHT22;7477;45.222;5.688;2023-11-19T08:31:44;6.60;99.90
14771;DHT22;7477;45.222;5.688;2023-11-19T08:35:04;6.80;99.90
14771;DHT22;7477;45.222;5.688;2023-11-19T08:38:24;6.70;99.90
14771;DHT22;7477;45.222;5.688;2023-11-19T08:41:44;6.90;99.90
14771;DHT22;7477;45.222;5.688;2023-11-19T08:45:04;6.90;99.90
14771;DHT22;7477;45.222;5.688;2023-11-19T08:48:24;6.90;99.90
14771;DHT22;7477;45.222;5.688;2023-11-19T08:51:45;7.00;99.90
14771;DHT22;7477;45.222;5.688;2023-11-19T08:55:04;7.00;99.90
14771;DHT22;7477;45.222;5.688;2023-11-19T08:58:28;7.10;99.90
14771;DHT22;7477;45.222;5.688;2023-11-19T09:01:48;7.20;99.90
14771;DHT22;7477;45.222;5.688;2023-11-19T09:05:07;7.30;99.90
14771;DHT22;7477;45.222;5.688;2023-11-19T09:08:26;7.40;99.90
14771;DHT22;7477;45.222;5.688;2023-11-19T09:11:46;7.50;99.90
14771;DHT22;7477;45.222;5.688;2023-11-19T09:15:05;7.60;99.90
14771;DHT22;7477;45.222;5.688;2023-11-19T09:18:25;7.70;99.90
14771;DHT22;7477;45.222;5.688;2023-11-19T09:21:44;7.70;99.90
14771;DHT22;7477;45.222;5.688;2023-11-19T09:25:04;7.80;99.90
14771;DHT22;7477;45.222;5.688;2023-11-19T09:28:24;7.80;99.90
14771;DHT22;7477;45.222;5.688;2023-11-19T09:31:43;7.90;99.90
14771;DHT22;7477;45.222;5.688;2023-11-19T09:35:03;7.90;99.90
14771;DHT22;7477;45.222;5.688;2023-11-19T09:38:22;8.00;99.90
14771;DHT22;7477;45.222;5.688;2023-11-19T09:41:41;8.10;99.90
14771;DHT22;7477;45.222;5.688;2023-11-19T09:45:03;8.30;99.90
14771;DHT22;7477;45.222;5.688;2023-11-19T09:48:26;8.20;99.90
14771;DHT22;7477;45.222;5.688;2023-11-19T09:51:45;8.20;99.90
14771;DHT22;7477;45.222;5.688;2023-11-19T09:55:04;8.40;99.90
14771;DHT22;7477;45.222;5.688;2023-11-19T09:58:24;8.50;99.90
14771;DHT22;7477;45.222;5.688;2023-11-19T10:01:43;8.60;99.90
14771;DHT22;7477;45.222;5.688;2023-11-19T10:05:07;8.70;99.90
14771;DHT22;7477;45.222;5.688;2023-11-19T10:08:26;8.70;99.90
14771;DHT22;7477;45.222;5.688;2023-11-19T10:11:45;8.80;99.90
14771;DHT22;7477;45.222;5.688;2023-11-19T10:15:06;8.90;99.90
14771;DHT22;7477;45.222;5.688;2023-11-19T10:18:28;9.00;99.90
14771;DHT22;7477;45.222;5.688;2023-11-19T10:21:48;9.00;99.90
14771;DHT22;7477;45.222;5.688;2023-11-19T10:25:27;9.20;99.90
14771;DHT22;7477;45.222;5.688;2023-11-19T10:28:47;9.30;99.90
14771;DHT22;7477;45.222;5.688;2023-11-19T10:32:07;9.20;99.90
14771;DHT22;7477;45.222;5.688;2023-11-19T10:35:26;9.40;99.90
14771;DHT22;7477;45.222;5.688;2023-11-19T10:38:53;9.50;99.90
14771;DHT22;7477;45.222;5.688;2023-11-19T10:42:16;9.50;99.90
14771;DHT22;7477;45.222;5.688;2023-11-19T10:45:38;9.50;99.90
14771;DHT22;7477;45.222;5.688;2023-11-19T10:48:58;9.70;99.90
14771;DHT22;7477;45.222;5.688;2023-11-19T10:52:18;9.70;99.90
14771;DHT22;7477;45.222;5.688;2023-11-19T10:55:41;9.80;99.90
14771;DHT22;7477;45.222;5.688;2023-11-19T10:59:00;9.80;99.90
14771;DHT22;7477;45.222;5.688;2023-11-19T11:02:22;9.90;99.90
14771;DHT22;7477;45.222;5.688;2023-11-19T11:05:46;10.00;99.90
14771;DHT22;7477;45.222;5.688;2023-11-19T11:09:07;10.20;99.90
14771;DHT22;7477;45.222;5.688;2023-11-19T11:12:34;10.40;99.90
14771;DHT22;7477;45.222;5.688;2023-11-19T11:15:56;10.40;99.90
14771;DHT22;7477;45.222;5.688;2023-11-19T11:19:17;10.40;99.90
14771;DHT22;7477;45.222;5.688;2023-11-19T11:23:03;10.50;99.90
14771;DHT22;7477;45.222;5.688;2023-11-19T11:38:06;10.70;99.90
14771;DHT22;7477;45.222;5.688;2023-11-19T11:41:26;10.80;99.90
14771;DHT22;7477;45.222;5.688;2023-11-19T11:45:07;10.70;99.90
14771;DHT22;7477;45.222;5.688;2023-11-19T11:48:28;10.70;99.90
14771;DHT22;7477;45.222;5.688;2023-11-19T11:51:59;10.80;99.90
14771;DHT22;7477;45.222;5.688;2023-11-19T11:58:43;11.00;99.90
14771;DHT22;7477;45.222;5.688;2023-11-19T12:02:03;11.00;99.90
14771;DHT22;7477;45.222;5.688;2023-11-19T12:05:23;11.10;99.90
14771;DHT22;7477;45.222;5.688;2023-11-19T12:08:42;11.40;99.90
14771;DHT22;7477;45.222;5.688;2023-11-19T12:15:31;11.60;99.90
14771;DHT22;7477;45.222;5.688;2023-11-19T12:18:53;11.70;99.90
14771;DHT22;7477;45.222;5.688;2023-11-19T12:22:13;12.00;99.90
14771;DHT22;7477;45.222;5.688;2023-11-19T12:25:34;11.60;99.90
14771;DHT22;7477;45.222;5.688;2023-11-19T12:29:00;11.20;99.90
14771;DHT22;7477;45.222;5.688;2023-11-19T12:32:20;11.10;99.90
14771;DHT22;7477;45.222;5.688;2023-11-19T12:35:47;11.40;99.90
14771;DHT22;7477;45.222;5.688;2023-11-19T12:39:08;11.70;99.90
14771;DHT22;7477;45.222;5.688;2023-11-19T12:42:38;11.60;99.90
14771;DHT22;7477;45.222;5.688;2023-11-19T12:45:57;11.90;99.90
14771;DHT22;7477;45.222;5.688;2023-11-19T12:49:17;11.90;99.90
14771;DHT22;7477;45.222;5.688;2023-11-19T12:52:37;12.80;99.90
14771;DHT22;7477;45.222;5.688;2023-11-19T12:56:07;12.70;99.90
14771;DHT22;7477;45.222;5.688;2023-11-19T12:59:26;12.30;99.90
14771;DHT22;7477;45.222;5.688;2023-11-19T13:02:50;12.20;99.90
14771;DHT22;7477;45.222;5.688;2023-11-19T13:06:11;12.10;99.90
14771;DHT22;7477;45.222;5.688;2023-11-19T13:09:30;11.80;99.90
14771;DHT22;7477;45.222;5.688;2023-11-19T13:13:06;11.80;99.90
14771;DHT22;7477;45.222;5.688;2023-11-19T13:16:28;12.10;99.90
14771;DHT22;7477;45.222;5.688;2023-11-19T13:19:47;12.40;99.90
14771;DHT22;7477;45.222;5.688;2023-11-19T13:23:08;12.50;99.90
14771;DHT22;7477;45.222;5.688;2023-11-19T13:26:27;12.60;99.90
14771;DHT22;7477;45.222;5.688;2023-11-19T13:29:47;12.80;99.90
14771;DHT22;7477;45.222;5.688;2023-11-19T13:33:06;12.90;99.90
14771;DHT22;7477;45.222;5.688;2023-11-19T13:36:25;12.90;99.90
14771;DHT22;7477;45.222;5.688;2023-11-19T13:39:45;12.90;99.90
14771;DHT22;7477;45.222;5.688;2023-11-19T13:43:05;12.90;99.90
14771;DHT22;7477;45.222;5.688;2023-11-19T13:46:24;12.90;99.90
14771;DHT22;7477;45.222;5.688;2023-11-19T13:49:44;12.90;99.90
14771;DHT22;7477;45.222;5.688;2023-11-19T13:53:04;12.90;99.90
14771;DHT22;7477;45.222;5.688;2023-11-19T13:56:24;12.60;99.90
14771;DHT22;7477;45.222;5.688;2023-11-19T13:59:43;12.90;99.90
14771;DHT22;7477;45.222;5.688;2023-11-19T14:03:02;12.90;99.90
14771;DHT22;7477;45.222;5.688;2023-11-19T14:06:21;13.00;99.90
14771;DHT22;7477;45.222;5.688;2023-11-19T14:09:44;13.10;99.90
14771;DHT22;7477;45.222;5.688;2023-11-19T14:13:04;13.20;99.90
14771;DHT22;7477;45.222;5.688;2023-11-19T14:16:27;13.10;99.90
14771;DHT22;7477;45.222;5.688;2023-11-19T14:19:46;12.90;99.90
14771;DHT22;7477;45.222;5.688;2023-11-19T14:23:06;12.90;99.90
14771;DHT22;7477;45.222;5.688;2023-11-19T14:26:25;13.00;99.90
14771;DHT22;7477;45.222;5.688;2023-11-19T14:29:44;13.10;99.90
14771;DHT22;7477;45.222;5.688;2023-11-19T14:33:06;13.20;99.90
14771;DHT22;7477;45.222;5.688;2023-11-19T14:36:26;13.10;99.90
14771;DHT22;7477;45.222;5.688;2023-11-19T14:39:46;13.30;99.90
14771;DHT22;7477;45.222;5.688;2023-11-19T14:43:05;13.50;99.90
14771;DHT22;7477;45.222;5.688;2023-11-19T14:46:24;13.30;99.90
14771;DHT22;7477;45.222;5.688;2023-11-19T14:49:43;13.20;99.90
14771;DHT22;7477;45.222;5.688;2023-11-19T14:53:02;13.40;99.90
14771;DHT22;7477;45.222;5.688;2023-11-19T14:56:22;13.30;99.90
14771;DHT22;7477;45.222;5.688;2023-11-19T14:59:41;13.20;99.90
14771;DHT22;7477;45.222;5.688;2023-11-19T15:03:00;13.10;99.90
14771;DHT22;7477;45.222;5.688;2023-11-19T15:06:23;13.10;99.90
14771;DHT22;7477;45.222;5.688;2023-11-19T15:09:42;12.40;99.90
14771;DHT22;7477;45.222;5.688;2023-11-19T15:13:01;12.30;99.90
14771;DHT22;7477;45.222;5.688;2023-11-19T15:16:21;12.70;99.90
14771;DHT22;7477;45.222;5.688;2023-11-19T15:19:49;12.90;99.90
14771;DHT22;7477;45.222;5.688;2023-11-19T15:23:09;12.80;99.90
14771;DHT22;7477;45.222;5.688;2023-11-19T15:26:29;12.80;99.90
14771;DHT22;7477;45.222;5.688;2023-11-19T15:29:48;12.80;99.90
14771;DHT22;7477;45.222;5.688;2023-11-19T15:33:07;12.80;99.90
14771;DHT22;7477;45.222;5.688;2023-11-19T15:36:27;12.80;99.90
14771;DHT22;7477;45.222;5.688;2023-11-19T15:39:47;12.70;99.90
14771;DHT22;7477;45.222;5.688;2023-11-19T15:43:09;12.70;99.90
14771;DHT22;7477;45.222;5.688;2023-11-19T15:46:28;12.70;99.90
14771;DHT22;7477;45.222;5.688;2023-11-19T15:49:47;12.60;99.90
14771;DHT22;7477;45.222;5.688;2023-11-19T15:53:07;12.70;99.90
14771;DHT22;7477;45.222;5.688;2023-11-19T15:56:27;12.60;99.90
14771;DHT22;7477;45.222;5.688;2023-11-19T15:59:46;12.70;99.90
14771;DHT22;7477;45.222;5.688;2023-11-19T16:03:07;12.70;99.90
14771;DHT22;7477;45.222;5.688;2023-11-19T16:06:26;12.70;99.90
14771;DHT22;7477;45.222;5.688;2023-11-19T16:09:45;12.70;99.90
14771;DHT22;7477;45.222;5.688;2023-11-19T16:13:04;12.70;99.90
14771;DHT22;7477;45.222;5.688;2023-11-19T16:16:23;12.70;99.90
14771;DHT22;7477;45.222;5.688;2023-11-19T16:19:42;12.70;99.90
14771;DHT22;7477;45.222;5.688;2023-11-19T16:23:01;12.60;99.90
14771;DHT22;7477;45.222;5.688;2023-11-19T16:26:23;12.60;99.90
14771;DHT22;7477;45.222;5.688;2023-11-19T16:29:42;12.60;99.90
14771;DHT22;7477;45.222;5.688;2023-11-19T16:33:02;12.60;99.90
14771;DHT22;7477;45.222;5.688;2023-11-19T16:36:22;12.50;99.90
14771;DHT22;7477;45.222;5.688;2023-11-19T16:39:41;12.60;99.90
14771;DHT22;7477;45.222;5.688;2023-11-19T16:43:01;12.60;99.90
14771;DHT22;7477;45.222;5.688;2023-11-19T16:46:20;12.60;99.90
14771;DHT22;7477;45.222;5.688;2023-11-19T16:49:39;12.50;99.90
14771;DHT22;7477;45.222;5.688;2023-11-19T16:53:01;12.50;99.90
14771;DHT22;7477;45.222;5.688;2023-11-19T16:56:23;12.50;99.90
14771;DHT22;7477;45.222;5.688;2023-11-19T16:59:42;12.50;99.90
14771;DHT22;7477;45.222;5.688;2023-11-19T17:03:01;12.40;99.90
14771;DHT22;7477;45.222;5.688;2023-11-19T17:06:21;12.30;99.90
14771;DHT22;7477;45.222;5.688;2023-11-19T17:09:41;12.30;99.90
14771;DHT22;7477;45.222;5.688;2023-11-19T17:13:01;12.30;99.90
14771;DHT22;7477;45.222;5.688;2023-11-19T17:16:21;12.30;99.90
14771;DHT22;7477;45.222;5.688;2023-11-19T17:19:40;12.20;99.90
14771;DHT22;7477;45.222;5.688;2023-11-19T17:23:00;12.20;99.90
14771;DHT22;7477;45.222;5.688;2023-11-19T17:26:22;12.20;99.90
14771;DHT22;7477;45.222;5.688;2023-11-19T17:29:42;12.20;99.90
14771;DHT22;7477;45.222;5.688;2023-11-19T17:33:01;12.10;99.90
14771;DHT22;7477;45.222;5.688;2023-11-19T17:36:24;12.10;99.90
14771;DHT22;7477;45.222;5.688;2023-11-19T17:39:43;12.00;99.90
14771;DHT22;7477;45.222;5.688;2023-11-19T17:43:02;12.00;99.90
14771;DHT22;7477;45.222;5.688;2023-11-19T17:46:22;11.90;99.90
14771;DHT22;7477;45.222;5.688;2023-11-19T17:49:41;12.00;99.90
14771;DHT22;7477;45.222;5.688;2023-11-19T17:53:00;11.90;99.90
14771;DHT22;7477;45.222;5.688;2023-11-19T17:56:19;12.00;99.90
14771;DHT22;7477;45.222;5.688;2023-11-19T17:59:38;11.90;99.90
14771;DHT22;7477;45.222;5.688;2023-11-19T18:02:57;11.90;99.90
14771;DHT22;7477;45.222;5.688;2023-11-19T18:06:16;11.90;99.90
14771;DHT22;7477;45.222;5.688;2023-11-19T18:09:38;11.90;99.90
14771;DHT22;7477;45.222;5.688;2023-11-19T18:12:58;11.80;99.90
14771;DHT22;7477;45.222;5.688;2023-11-19T18:16:20;11.80;99.90
14771;DHT22;7477;45.222;5.688;2023-11-19T18:19:40;11.80;99.90
14771;DHT22;7477;45.222;5.688;2023-11-19T18:22:59;11.80;99.90
14771;DHT22;7477;45.222;5.688;2023-11-19T18:26:19;11.80;99.90
14771;DHT22;7477;45.222;5.688;2023-11-19T18:29:38;11.70;99.90
14771;DHT22;7477;45.222;5.688;2023-11-19T18:32:59;11.70;99.90
14771;DHT22;7477;45.222;5.688;2023-11-19T18:36:18;11.60;99.90
14771;DHT22;7477;45.222;5.688;2023-11-19T18:39:40;11.50;99.90
14771;DHT22;7477;45.222;5.688;2023-11-19T18:42:59;11.40;99.90
14771;DHT22;7477;45.222;5.688;2023-11-19T18:46:18;11.40;99.90
14771;DHT22;7477;45.222;5.688;2023-11-19T18:49:37;11.30;99.90
14771;DHT22;7477;45.222;5.688;2023-11-19T18:52:56;11.20;99.90
14771;DHT22;7477;45.222;5.688;2023-11-19T18:56:16;11.20;99.90
14771;DHT22;7477;45.222;5.688;2023-11-19T18:59:36;11.10;99.90
14771;DHT22;7477;45.222;5.688;2023-11-19T19:02:56;11.00;99.90
14771;DHT22;7477;45.222;5.688;2023-11-19T19:06:15;10.90;99.90
14771;DHT22;7477;45.222;5.688;2023-11-19T19:09:35;10.90;99.90
14771;DHT22;7477;45.222;5.688;2023-11-19T19:12:54;10.90;99.90
14771;DHT22;7477;45.222;5.688;2023-11-19T19:16:15;10.80;99.90
14771;DHT22;7477;45.222;5.688;2023-11-19T19:19:34;10.80;99.90
14771;DHT22;7477;45.222;5.688;2023-11-19T19:22:53;10.80;99.90
14771;DHT22;7477;45.222;5.688;2023-11-19T19:26:12;10.70;99.90
14771;DHT22;7477;45.222;5.688;2023-11-19T19:29:31;10.70;99.90
14771;DHT22;7477;45.222;5.688;2023-11-19T19:32:51;10.70;99.90
14771;DHT22;7477;45.222;5.688;2023-11-19T19:36:11;10.70;99.90
14771;DHT22;7477;45.222;5.688;2023-11-19T19:39:31;10.70;99.90
14771;DHT22;7477;45.222;5.688;2023-11-19T19:42:52;10.70;99.90
14771;DHT22;7477;45.222;5.688;2023-11-19T19:46:12;10.70;99.90
14771;DHT22;7477;45.222;5.688;2023-11-19T19:49:31;10.70;99.90
14771;DHT22;7477;45.222;5.688;2023-11-19T19:52:50;10.70;99.90
14771;DHT22;7477;45.222;5.688;2023-11-19T19:56:09;10.70;99.90
14771;DHT22;7477;45.222;5.688;2023-11-19T19:59:28;10.60;99.90
14771;DHT22;7477;45.222;5.688;2023-11-19T20:02:47;10.60;99.90
14771;DHT22;7477;45.222;5.688;2023-11-19T20:06:06;10.60;99.90
14771;DHT22;7477;45.222;5.688;2023-11-19T20:09:31;10.50;99.90
14771;DHT22;7477;45.222;5.688;2023-11-19T20:12:52;10.40;99.90
14771;DHT22;7477;45.222;5.688;2023-11-19T20:16:12;10.30;99.90
14771;DHT22;7477;45.222;5.688;2023-11-19T20:19:31;10.30;99.90
14771;DHT22;7477;45.222;5.688;2023-11-19T20:22:50;10.30;99.90
14771;DHT22;7477;45.222;5.688;2023-11-19T20:26:09;10.30;99.90
14771;DHT22;7477;45.222;5.688;2023-11-19T20:29:32;10.20;99.90
14771;DHT22;7477;45.222;5.688;2023-11-19T20:32:51;10.10;99.90
14771;DHT22;7477;45.222;5.688;2023-11-19T20:36:10;10.10;99.90
14771;DHT22;7477;45.222;5.688;2023-11-19T20:39:29;10.10;99.90
14771;DHT22;7477;45.222;5.688;2023-11-19T20:42:48;10.00;99.90
14771;DHT22;7477;45.222;5.688;2023-11-19T20:46:09;10.10;99.90
14771;DHT22;7477;45.222;5.688;2023-11-19T20:49:28;10.20;99.90
14771;DHT22;7477;45.222;5.688;2023-11-19T20:52:48;10.20;99.90
14771;DHT22;7477;45.222;5.688;2023-11-19T20:56:09;10.20;99.90
14771;DHT22;7477;45.222;5.688;2023-11-19T20:59:28;10.10;99.90
14771;DHT22;7477;45.222;5.688;2023-11-19T21:02:47;10.10;99.90
14771;DHT22;7477;45.222;5.688;2023-11-19T21:06:07;10.00;99.90
14771;DHT22;7477;45.222;5.688;2023-11-19T21:09:27;10.00;99.90
14771;DHT22;7477;45.222;5.688;2023-11-19T21:12:46;9.90;99.90
14771;DHT22;7477;45.222;5.688;2023-11-19T21:16:08;9.80;99.90
14771;DHT22;7477;45.222;5.688;2023-11-19T21:19:29;9.80;99.90
14771;DHT22;7477;45.222;5.688;2023-11-19T21:22:49;9.80;99.90
14771;DHT22;7477;45.222;5.688;2023-11-19T21:26:08;9.80;99.90
14771;DHT22;7477;45.222;5.688;2023-11-19T21:29:27;9.80;99.90
14771;DHT22;7477;45.222;5.688;2023-11-19T21:32:46;9.70;99.90
14771;DHT22;7477;45.222;5.688;2023-11-19T21:36:05;9.60;99.90
14771;DHT22;7477;45.222;5.688;2023-11-19T21:39:25;9.60;99.90
14771;DHT22;7477;45.222;5.688;2023-11-19T21:42:44;9.50;99.90
14771;DHT22;7477;45.222;5.688;2023-11-19T21:46:03;9.50;99.90
14771;DHT22;7477;45.222;5.688;2023-11-19T21:49:24;9.50;99.90
14771;DHT22;7477;45.222;5.688;2023-11-19T21:52:43;9.30;99.90
14771;DHT22;7477;45.222;5.688;2023-11-19T21:56:02;9.30;99.90